Time;durP1;ratioP1;P1;durP2;ratioP2;P2;SDS_P1;SDS_P2;PMS_P1;PMS_P2;Temp;Humidity;BMP_temperature;BMP_pressure;BME280_temperature;BME280_humidity;BME280_pressure;Samples;Min_cycle;Max_cycle;Signal;HPM_P1;HPM_P2
2024/02/24 00:01:52;;;;;;;0.63;0.50;;;2.80;99.90;;;;;;5042231;28;20045;-77
2024/02/24 00:04:19;;;;;;;0.52;0.50;;;2.80;99.90;;;;;;5042869;28;20106;-76
2024/02/24 00:06:46;;;;;;;0.40;0.40;;;2.70;99.90;;;;;;5041902;28;20132;-76
2024/02/24 00:09:13;;;;;;;0.60;0.60;;;2.70;99.90;;;;;;5042865;28;20052;-76
2024/02/24 00:11:40;;;;;;;0.50;0.50;;;2.70;99.90;;;;;;5042283;28;20123;-76
2024/02/24 00:14:07;;;;;;;0.57;0.52;;;2.70;99.90;;;;;;5042168;28;20083;-77
2024/02/24 00:16:34;;;;;;;1.00;0.60;;;2.70;99.90;;;;;;5041645;28;20083;-77
2024/02/24 00:19:01;;;;;;;1.08;0.70;;;2.60;99.90;;;;;;5043288;28;20064;-76
2024/02/24 00:21:28;;;;;;;0.50;0.50;;;2.60;99.90;;;;;;5032644;28;20061;-76
2024/02/24 00:23:55;;;;;;;1.80;0.90;;;2.60;99.90;;;;;;5034499;28;20454;-77
2024/02/24 00:26:22;;;;;;;1.10;0.68;;;2.60;99.90;;;;;;5040714;28;20045;-76
2024/02/24 00:28:49;;;;;;;1.05;0.70;;;2.50;99.90;;;;;;5005553;28;20053;-76
2024/02/24 00:31:16;;;;;;;0.95;0.70;;;2.50;99.90;;;;;;5005784;28;20050;-77
2024/02/24 00:33:43;;;;;;;0.63;0.60;;;2.50;99.90;;;;;;5031347;28;20088;-76
2024/02/24 00:36:10;;;;;;;0.93;0.70;;;2.50;99.90;;;;;;5042922;28;20461;-77
2024/02/24 00:38:38;;;;;;;0.70;0.60;;;2.40;99.90;;;;;;5018091;28;20072;-77
2024/02/24 00:41:05;;;;;;;0.90;0.63;;;2.40;99.90;;;;;;5029100;28;20060;-76
2024/02/24 00:43:32;;;;;;;0.93;0.52;;;2.40;99.90;;;;;;5020536;28;20583;-77
2024/02/24 00:46:00;;;;;;;0.88;0.60;;;2.30;99.90;;;;;;5022995;28;20243;-77
2024/02/24 00:48:28;;;;;;;0.60;0.40;;;2.30;99.90;;;;;;5023399;28;20130;-77
2024/02/24 00:50:55;;;;;;;0.50;0.50;;;2.30;99.90;;;;;;5028444;28;20083;-77
2024/02/24 00:53:22;;;;;;;0.40;0.40;;;2.30;99.90;;;;;;5041407;28;20053;-77
2024/02/24 00:55:49;;;;;;;0.50;0.50;;;2.30;99.90;;;;;;5040485;28;20053;-77
2024/02/24 00:58:16;;;;;;;0.45;0.30;;;2.30;99.90;;;;;;5040602;28;20146;-77
2024/02/24 01:00:43;;;;;;;0.40;0.35;;;2.30;99.90;;;;;;5040706;28;20060;-77
2024/02/24 01:03:10;;;;;;;0.63;0.55;;;2.30;99.90;;;;;;5040557;28;20056;-77
2024/02/24 01:05:39;;;;;;;0.30;0.30;;;2.30;99.90;;;;;;5040479;28;20053;-77
2024/02/24 01:08:06;;;;;;;0.63;0.63;;;2.30;99.90;;;;;;5041186;28;20049;-76
2024/02/24 01:10:33;;;;;;;1.20;0.57;;;2.30;99.90;;;;;;5040279;28;20546;-77
2024/02/24 01:13:00;;;;;;;0.63;0.50;;;2.30;99.90;;;;;;5041227;28;20045;-76
2024/02/24 01:15:27;;;;;;;0.43;0.43;;;2.30;99.90;;;;;;5042682;28;20056;-76
2024/02/24 01:17:56;;;;;;;0.60;0.50;;;2.30;99.90;;;;;;5040750;28;20595;-77
2024/02/24 01:20:23;;;;;;;0.50;0.50;;;2.30;99.90;;;;;;5039915;28;20524;-76
2024/02/24 01:22:53;;;;;;;0.40;0.40;;;2.30;99.90;;;;;;5040483;28;20851;-77
2024/02/24 01:25:21;;;;;;;0.32;0.32;;;2.20;99.90;;;;;;5040206;28;20098;-77
2024/02/24 01:27:49;;;;;;;0.32;0.30;;;2.20;99.90;;;;;;5039081;28;20068;-77
2024/02/24 01:30:17;;;;;;;1.25;0.40;;;2.20;99.90;;;;;;5041941;28;20145;-77
2024/02/24 01:32:44;;;;;;;0.40;0.40;;;2.20;99.90;;;;;;5041560;28;20705;-77
2024/02/24 01:35:12;;;;;;;0.55;0.52;;;2.20;99.90;;;;;;5040373;28;20053;-77
2024/02/24 01:37:40;;;;;;;0.47;0.47;;;2.20;99.90;;;;;;5034660;28;20064;-76
2024/02/24 01:40:07;;;;;;;0.30;0.30;;;2.20;99.90;;;;;;5024087;28;20169;-77
2024/02/24 01:42:34;;;;;;;0.50;0.50;;;2.10;99.90;;;;;;5040428;28;20049;-76
2024/02/24 01:45:01;;;;;;;0.75;0.40;;;2.10;99.90;;;;;;5041676;28;20146;-76
2024/02/24 01:47:29;;;;;;;0.38;0.30;;;2.00;99.90;;;;;;5034507;28;20131;-76
2024/02/24 01:49:56;;;;;;;0.20;0.20;;;2.00;99.90;;;;;;5020352;28;20155;-76
2024/02/24 01:52:23;;;;;;;0.30;0.30;;;2.00;99.90;;;;;;5038967;28;20053;-77
2024/02/24 01:54:53;;;;;;;0.40;0.40;;;1.90;99.90;;;;;;5039288;28;20045;-77
2024/02/24 01:57:20;;;;;;;0.32;0.32;;;1.90;99.90;;;;;;5001921;28;20781;-76
2024/02/24 01:59:46;;;;;;;0.60;0.60;;;1.80;99.90;;;;;;5020271;28;20057;-76
2024/02/24 02:02:13;;;;;;;0.40;0.40;;;1.80;99.90;;;;;;5036116;28;20060;-77
2024/02/24 02:04:40;;;;;;;0.60;0.60;;;1.80;99.90;;;;;;5039301;28;20506;-76
2024/02/24 02:07:07;;;;;;;0.40;0.40;;;1.80;99.90;;;;;;5039326;28;20053;-76
2024/02/24 02:09:34;;;;;;;0.40;0.40;;;1.80;99.90;;;;;;5022699;28;20056;-77
2024/02/24 02:12:02;;;;;;;0.50;0.50;;;1.70;99.90;;;;;;5039890;28;20541;-78
2024/02/24 02:14:30;;;;;;;1.00;0.45;;;1.70;99.90;;;;;;5040880;28;20139;-77
2024/02/24 02:16:57;;;;;;;0.47;0.43;;;1.70;99.90;;;;;;5040078;28;20048;-77
2024/02/24 02:19:23;;;;;;;0.40;0.40;;;1.70;99.90;;;;;;5039819;28;20076;-77
2024/02/24 02:21:50;;;;;;;1.25;0.50;;;1.70;99.90;;;;;;5040671;28;20057;-76
2024/02/24 02:24:17;;;;;;;0.40;0.40;;;1.60;99.90;;;;;;5023318;28;20061;-76
2024/02/24 02:26:44;;;;;;;0.40;0.40;;;1.60;99.90;;;;;;5039591;28;20053;-76
2024/02/24 02:29:11;;;;;;;1.15;0.80;;;1.60;99.90;;;;;;5040999;28;20098;-80
2024/02/24 02:31:38;;;;;;;0.50;0.50;;;1.50;99.90;;;;;;5039982;28;20518;-77
2024/02/24 02:34:05;;;;;;;0.50;0.50;;;1.50;99.90;;;;;;5026544;28;20045;-76
2024/02/24 02:36:33;;;;;;;0.98;0.60;;;1.50;99.90;;;;;;5004834;28;20443;-77
2024/02/24 02:39:00;;;;;;;0.45;0.40;;;1.50;99.90;;;;;;5039590;28;20148;-77
2024/02/24 02:41:27;;;;;;;0.55;0.50;;;1.40;99.90;;;;;;5039363;28;20799;-78
2024/02/24 02:43:54;;;;;;;0.50;0.45;;;1.40;99.90;;;;;;5021031;28;20085;-76
2024/02/24 02:46:21;;;;;;;0.65;0.40;;;1.40;99.90;;;;;;5020870;28;20112;-76
2024/02/24 02:48:47;;;;;;;0.60;0.60;;;1.30;99.90;;;;;;5039360;28;20493;-76
2024/02/24 02:51:14;;;;;;;0.40;0.40;;;1.30;99.90;;;;;;5042470;28;20044;-77
2024/02/24 02:53:41;;;;;;;0.40;0.40;;;1.30;99.90;;;;;;5041872;28;20068;-76
2024/02/24 02:56:12;;;;;;;0.45;0.45;;;1.30;99.90;;;;;;5041611;28;20367;-77
2024/02/24 02:58:39;;;;;;;0.40;0.40;;;1.30;99.90;;;;;;5004285;28;20057;-77
2024/02/24 03:01:08;;;;;;;0.77;0.60;;;1.30;99.90;;;;;;5040856;28;20098;-77
2024/02/24 03:03:35;;;;;;;0.30;0.30;;;1.30;99.90;;;;;;5023972;28;20049;-76
2024/02/24 03:06:02;;;;;;;0.40;0.40;;;1.30;99.90;;;;;;5040817;28;20063;-76
2024/02/24 03:08:32;;;;;;;0.68;0.55;;;1.20;99.90;;;;;;5040946;28;20410;-76
2024/02/24 03:11:01;;;;;;;0.47;0.47;;;1.20;99.90;;;;;;5028976;28;20174;-77
2024/02/24 03:13:28;;;;;;;0.30;0.30;;;1.20;99.90;;;;;;5023767;28;20128;-76
2024/02/24 03:15:55;;;;;;;0.55;0.43;;;1.30;99.90;;;;;;5004957;28;20057;-76
2024/02/24 03:18:23;;;;;;;0.35;0.35;;;1.30;99.90;;;;;;5034124;28;20068;-77
2024/02/24 03:20:50;;;;;;;0.40;0.40;;;1.20;99.90;;;;;;5024216;28;20059;-77
2024/02/24 03:23:17;;;;;;;0.50;0.50;;;1.20;99.90;;;;;;5024124;28;20049;-76
2024/02/24 03:25:43;;;;;;;0.30;0.30;;;1.20;99.90;;;;;;5023322;28;20063;-76
2024/02/24 03:28:10;;;;;;;0.50;0.50;;;1.10;99.90;;;;;;5040942;28;20126;-76
2024/02/24 03:30:37;;;;;;;0.52;0.52;;;1.10;99.90;;;;;;5041978;28;20049;-76
2024/02/24 03:33:05;;;;;;;0.40;0.40;;;1.10;99.90;;;;;;5041139;28;20061;-76
2024/02/24 03:35:32;;;;;;;0.60;0.45;;;1.00;99.90;;;;;;5040168;28;20084;-76
2024/02/24 03:37:59;;;;;;;0.50;0.50;;;1.00;99.90;;;;;;5040497;28;20068;-76
2024/02/24 03:40:26;;;;;;;0.50;0.40;;;1.00;99.90;;;;;;5023243;28;20226;-76
2024/02/24 03:42:52;;;;;;;0.47;0.47;;;1.00;99.90;;;;;;5039491;28;20154;-76
2024/02/24 03:45:19;;;;;;;0.40;0.40;;;1.00;99.90;;;;;;5041840;28;20612;-76
2024/02/24 03:47:46;;;;;;;0.50;0.50;;;1.00;99.90;;;;;;5020486;28;20053;-76
2024/02/24 03:50:13;;;;;;;0.47;0.47;;;1.00;99.90;;;;;;5020355;28;20046;-76
2024/02/24 03:52:40;;;;;;;0.50;0.50;;;1.00;99.90;;;;;;5042434;28;20506;-76
2024/02/24 03:55:08;;;;;;;0.52;0.45;;;1.00;99.90;;;;;;5025227;28;20088;-76
2024/02/24 03:57:34;;;;;;;0.85;0.43;;;0.90;99.90;;;;;;5029350;28;20106;-76
2024/02/24 04:00:03;;;;;;;0.40;0.40;;;0.90;99.90;;;;;;5044424;28;20048;-76
2024/02/24 04:02:30;;;;;;;0.63;0.50;;;0.90;99.90;;;;;;5043788;28;20402;-76
2024/02/24 04:04:57;;;;;;;0.43;0.43;;;0.90;99.90;;;;;;5043579;28;20048;-76
2024/02/24 04:07:23;;;;;;;0.40;0.40;;;0.90;99.90;;;;;;5023288;28;20176;-76
2024/02/24 04:09:50;;;;;;;0.43;0.43;;;0.90;99.90;;;;;;5029721;28;20542;-77
2024/02/24 04:12:17;;;;;;;0.65;0.30;;;0.80;99.90;;;;;;5043366;28;20605;-76
2024/02/24 04:14:44;;;;;;;0.52;0.45;;;0.80;99.90;;;;;;5023890;28;20060;-76
2024/02/24 04:17:12;;;;;;;0.57;0.45;;;0.80;99.90;;;;;;5010855;28;20056;-77
2024/02/24 04:19:39;;;;;;;0.50;0.50;;;0.70;99.90;;;;;;5043602;28;20071;-75
2024/02/24 04:22:06;;;;;;;0.47;0.47;;;0.70;99.90;;;;;;5044613;28;20641;-77
2024/02/24 04:24:33;;;;;;;0.50;0.50;;;0.80;99.90;;;;;;5044403;28;20109;-76
2024/02/24 04:27:00;;;;;;;0.50;0.50;;;0.80;99.90;;;;;;5025828;28;20059;-76
2024/02/24 04:29:27;;;;;;;0.40;0.40;;;0.80;99.90;;;;;;5043784;28;20255;-76
2024/02/24 04:31:54;;;;;;;0.40;0.40;;;0.80;99.90;;;;;;5043644;28;20139;-77
2024/02/24 04:34:20;;;;;;;0.47;0.45;;;0.80;99.90;;;;;;5023159;28;20045;-76
2024/02/24 04:36:47;;;;;;;0.50;0.50;;;0.80;99.90;;;;;;5022904;28;20138;-77
2024/02/24 04:39:14;;;;;;;0.50;0.50;;;0.80;99.90;;;;;;5043214;28;20053;-76
2024/02/24 04:41:41;;;;;;;0.40;0.40;;;0.80;99.90;;;;;;5014466;28;20554;-77
2024/02/24 04:44:08;;;;;;;0.50;0.50;;;0.70;99.90;;;;;;5034850;28;20049;-76
2024/02/24 04:46:38;;;;;;;0.50;0.50;;;0.70;99.90;;;;;;5044785;28;20614;-78
2024/02/24 04:49:04;;;;;;;0.73;0.50;;;0.70;99.90;;;;;;5042614;28;20099;-77
2024/02/24 04:51:31;;;;;;;0.45;0.45;;;0.70;99.90;;;;;;5044224;28;20056;-76
2024/02/24 04:53:58;;;;;;;0.40;0.40;;;0.70;99.90;;;;;;5044044;28;20045;-76
2024/02/24 04:56:25;;;;;;;0.60;0.60;;;0.80;99.90;;;;;;5041904;28;20080;-76
2024/02/24 04:58:52;;;;;;;0.40;0.40;;;0.80;99.90;;;;;;5026146;28;20056;-76
2024/02/24 05:01:19;;;;;;;0.60;0.60;;;0.80;99.90;;;;;;5011125;28;20461;-76
2024/02/24 05:03:47;;;;;;;0.47;0.45;;;0.80;99.90;;;;;;5030938;28;20079;-77
2024/02/24 05:06:14;;;;;;;0.77;0.77;;;0.80;99.90;;;;;;5025998;28;20076;-76
2024/02/24 05:08:43;;;;;;;0.40;0.40;;;0.80;99.90;;;;;;5023168;28;20050;-77
2024/02/24 05:11:10;;;;;;;0.40;0.40;;;0.70;99.90;;;;;;5009154;28;20057;-77
2024/02/24 05:13:37;;;;;;;0.38;0.38;;;0.70;99.90;;;;;;5008655;28;20050;-77
2024/02/24 05:16:05;;;;;;;0.40;0.40;;;0.70;99.90;;;;;;5006276;28;20079;-77
2024/02/24 05:18:32;;;;;;;0.40;0.40;;;0.70;99.90;;;;;;4998923;28;20503;-77
2024/02/24 05:20:59;;;;;;;0.40;0.40;;;0.70;99.90;;;;;;5027548;28;20049;-77
2024/02/24 05:23:26;;;;;;;0.55;0.55;;;0.70;99.90;;;;;;5026402;28;20641;-77
2024/02/24 05:25:53;;;;;;;0.65;0.50;;;0.60;99.90;;;;;;5008159;28;20045;-77
2024/02/24 05:28:20;;;;;;;0.60;0.50;;;0.60;99.90;;;;;;5041698;28;20114;-78
2024/02/24 05:30:47;;;;;;;0.60;0.60;;;0.60;99.90;;;;;;5022473;28;20127;-78
2024/02/24 05:33:15;;;;;;;0.68;0.50;;;0.60;99.90;;;;;;5024806;28;20126;-77
2024/02/24 05:35:42;;;;;;;1.10;0.68;;;0.60;99.90;;;;;;5042587;28;20475;-77
2024/02/24 05:38:09;;;;;;;0.40;0.40;;;0.60;99.90;;;;;;5021680;28;20050;-77
2024/02/24 05:40:36;;;;;;;0.40;0.40;;;0.60;99.90;;;;;;5007111;28;20086;-76
2024/02/24 05:43:03;;;;;;;0.60;0.52;;;0.60;99.90;;;;;;5008493;28;20045;-76
2024/02/24 05:45:30;;;;;;;0.50;0.50;;;0.50;99.90;;;;;;5041578;28;20564;-76
2024/02/24 05:47:57;;;;;;;0.40;0.40;;;0.50;99.90;;;;;;5041566;28;20535;-76
2024/02/24 05:50:24;;;;;;;0.50;0.50;;;0.50;99.90;;;;;;5009153;28;20494;-77
2024/02/24 05:52:50;;;;;;;0.40;0.40;;;0.50;99.90;;;;;;5041489;28;20052;-77
2024/02/24 05:55:17;;;;;;;0.47;0.47;;;0.50;99.90;;;;;;5021740;28;20053;-77
2024/02/24 05:57:44;;;;;;;0.50;0.50;;;0.50;99.90;;;;;;5028374;28;20049;-76
2024/02/24 06:00:12;;;;;;;0.40;0.40;;;0.50;99.90;;;;;;5041772;28;20131;-76
2024/02/24 06:02:39;;;;;;;0.70;0.60;;;0.50;99.90;;;;;;5039040;28;20143;-77
2024/02/24 06:05:06;;;;;;;0.50;0.50;;;0.50;99.90;;;;;;5039696;28;20132;-77
2024/02/24 06:07:33;;;;;;;0.50;0.50;;;0.50;99.90;;;;;;5003584;28;20053;-77
2024/02/24 06:10:00;;;;;;;0.52;0.50;;;0.50;99.90;;;;;;4987164;28;20048;-77
2024/02/24 06:12:27;;;;;;;0.50;0.50;;;0.50;99.90;;;;;;5018411;28;20057;-77
2024/02/24 06:14:54;;;;;;;0.30;0.30;;;0.50;99.90;;;;;;5018723;28;20053;-77
2024/02/24 06:17:20;;;;;;;1.35;0.50;;;0.50;99.90;;;;;;5003779;28;20053;-77
2024/02/24 06:19:47;;;;;;;0.50;0.50;;;0.40;99.90;;;;;;5019784;28;20140;-77
2024/02/24 06:22:14;;;;;;;0.35;0.35;;;0.40;99.90;;;;;;5019359;28;20645;-78
2024/02/24 06:24:41;;;;;;;0.52;0.50;;;0.40;99.90;;;;;;5023836;28;20045;-76
2024/02/24 06:27:08;;;;;;;0.57;0.50;;;0.40;99.90;;;;;;5014508;28;20060;-77
2024/02/24 06:29:35;;;;;;;0.50;0.50;;;0.40;99.90;;;;;;5003085;28;20144;-77
2024/02/24 06:32:02;;;;;;;0.80;0.60;;;0.40;99.90;;;;;;5001930;28;20117;-77
2024/02/24 06:34:29;;;;;;;0.77;0.70;;;0.40;99.90;;;;;;5005424;28;20099;-77
2024/02/24 06:36:55;;;;;;;0.57;0.57;;;0.40;99.90;;;;;;5015813;28;20053;-77
2024/02/24 06:39:23;;;;;;;0.93;0.73;;;0.30;99.90;;;;;;5014212;28;20483;-77
2024/02/24 06:41:49;;;;;;;0.63;0.63;;;0.30;99.90;;;;;;5009947;28;20107;-77
2024/02/24 06:44:16;;;;;;;0.50;0.50;;;0.30;99.90;;;;;;5001764;28;20055;-78
2024/02/24 06:46:43;;;;;;;1.25;0.70;;;0.30;99.90;;;;;;5003390;28;20443;-77
2024/02/24 06:49:10;;;;;;;1.02;0.77;;;0.30;99.90;;;;;;5002529;28;20049;-77
2024/02/24 06:51:37;;;;;;;0.52;0.50;;;0.30;99.90;;;;;;5019017;28;20125;-77
2024/02/24 06:54:04;;;;;;;0.63;0.63;;;0.30;99.90;;;;;;4998624;28;20119;-77
2024/02/24 06:56:31;;;;;;;0.55;0.55;;;0.40;99.90;;;;;;5007191;28;20054;-79
2024/02/24 06:59:00;;;;;;;1.13;0.60;;;0.40;99.90;;;;;;4999849;28;20140;-76
2024/02/24 07:01:26;;;;;;;0.85;0.63;;;0.40;99.90;;;;;;5008558;28;20514;-79
2024/02/24 07:03:53;;;;;;;0.63;0.60;;;0.40;99.90;;;;;;5004472;28;20042;-79
2024/02/24 07:06:20;;;;;;;0.40;0.40;;;0.30;99.90;;;;;;5012184;28;20557;-79
2024/02/24 07:08:48;;;;;;;0.82;0.60;;;0.30;99.90;;;;;;5018525;28;20057;-79
2024/02/24 07:11:15;;;;;;;0.52;0.52;;;0.30;99.90;;;;;;5004952;28;20594;-79
2024/02/24 07:13:42;;;;;;;0.65;0.60;;;0.30;99.90;;;;;;5025440;28;20049;-79
2024/02/24 07:16:08;;;;;;;0.90;0.65;;;0.30;99.90;;;;;;5021981;28;20556;-79
2024/02/24 07:18:38;;;;;;;1.08;0.80;;;0.40;99.90;;;;;;5037465;28;20479;-79
2024/02/24 07:21:06;;;;;;;0.70;0.70;;;0.30;99.90;;;;;;5021686;28;20045;-79
2024/02/24 07:23:33;;;;;;;1.17;0.80;;;0.40;99.90;;;;;;5002542;28;20767;-79
2024/02/24 07:26:00;;;;;;;0.70;0.55;;;0.40;99.90;;;;;;5033898;28;20053;-78
2024/02/24 07:28:28;;;;;;;0.65;0.60;;;0.40;99.90;;;;;;5013868;28;20407;-79
2024/02/24 07:30:54;;;;;;;0.47;0.47;;;0.40;99.90;;;;;;5005408;28;20049;-78
2024/02/24 07:33:21;;;;;;;0.57;0.57;;;0.50;99.90;;;;;;5013540;28;20045;-79
2024/02/24 07:35:49;;;;;;;0.65;0.63;;;0.50;99.90;;;;;;4992015;28;20050;-78
2024/02/24 07:38:17;;;;;;;0.80;0.60;;;0.50;99.90;;;;;;5033090;28;20486;-79
2024/02/24 07:40:44;;;;;;;0.52;0.47;;;0.50;99.90;;;;;;5028684;28;20045;-79
2024/02/24 07:43:11;;;;;;;0.60;0.50;;;0.60;99.90;;;;;;5018050;28;20045;-76
2024/02/24 07:45:38;;;;;;;0.60;0.60;;;0.60;99.90;;;;;;4999523;28;20794;-79
2024/02/24 07:48:06;;;;;;;0.60;0.50;;;0.60;99.90;;;;;;5013844;28;20099;-80
2024/02/24 07:50:33;;;;;;;0.60;0.60;;;0.70;99.90;;;;;;5038097;28;20127;-79
2024/02/24 07:53:00;;;;;;;0.77;0.77;;;0.70;99.90;;;;;;5005117;28;20140;-79
2024/02/24 07:55:27;;;;;;;0.95;0.80;;;0.70;99.90;;;;;;5024332;28;20053;-79
2024/02/24 07:57:54;;;;;;;1.05;0.80;;;0.70;99.90;;;;;;5016796;28;20407;-79
2024/02/24 08:00:21;;;;;;;0.80;0.75;;;0.80;99.90;;;;;;5023345;28;20053;-80
2024/02/24 08:02:48;;;;;;;0.95;0.50;;;0.80;99.90;;;;;;5010516;28;20049;-79
2024/02/24 08:05:16;;;;;;;0.60;0.60;;;0.90;99.90;;;;;;5029784;28;20046;-79
2024/02/24 08:07:44;;;;;;;1.08;0.88;;;0.90;99.90;;;;;;5025805;28;20063;-79
2024/02/24 08:10:11;;;;;;;1.10;0.90;;;1.00;99.90;;;;;;5012120;28;20041;-79
2024/02/24 08:12:38;;;;;;;1.27;0.82;;;1.00;99.90;;;;;;5030007;28;20142;-78
2024/02/24 08:15:05;;;;;;;0.85;0.68;;;1.00;99.90;;;;;;5029081;28;20042;-79
2024/02/24 08:17:32;;;;;;;0.95;0.70;;;1.00;99.90;;;;;;5018266;28;20049;-78
2024/02/24 08:20:00;;;;;;;1.08;0.98;;;1.10;99.90;;;;;;5033663;28;20076;-78
2024/02/24 08:22:27;;;;;;;0.70;0.65;;;1.10;99.90;;;;;;5032986;28;20618;-78
2024/02/24 08:24:54;;;;;;;1.17;0.88;;;1.20;99.90;;;;;;5004671;28;20137;-78
2024/02/24 08:27:21;;;;;;;0.70;0.70;;;1.20;99.90;;;;;;5018110;28;20143;-77
2024/02/24 08:29:48;;;;;;;0.75;0.73;;;1.30;99.90;;;;;;5016217;28;20159;-78
2024/02/24 08:32:17;;;;;;;0.60;0.60;;;1.40;99.90;;;;;;5004756;28;20432;-77
2024/02/24 08:34:44;;;;;;;1.10;0.88;;;1.40;99.90;;;;;;5018649;28;20104;-78
2024/02/24 08:37:11;;;;;;;1.13;0.60;;;1.50;99.90;;;;;;5016546;28;20385;-79
2024/02/24 08:39:38;;;;;;;0.68;0.60;;;1.50;99.90;;;;;;5011781;28;20075;-78
2024/02/24 08:42:05;;;;;;;0.40;0.40;;;1.50;99.90;;;;;;5018346;28;20049;-78
2024/02/24 08:44:32;;;;;;;0.55;0.50;;;1.60;99.90;;;;;;5032910;28;20137;-78
2024/02/24 08:46:59;;;;;;;1.00;0.73;;;1.70;99.90;;;;;;5005601;28;20061;-78
2024/02/24 08:49:26;;;;;;;0.68;0.60;;;1.80;99.90;;;;;;5014999;28;20053;-80
2024/02/24 08:51:53;;;;;;;0.40;0.40;;;2.00;99.90;;;;;;5024418;28;20050;-79
2024/02/24 08:54:20;;;;;;;0.57;0.50;;;2.10;99.90;;;;;;4995759;28;20049;-78
2024/02/24 08:56:47;;;;;;;0.50;0.40;;;2.20;99.90;;;;;;5013316;28;20057;-78
2024/02/24 08:59:15;;;;;;;1.02;0.63;;;2.30;99.90;;;;;;5012908;28;20057;-78
2024/02/24 09:01:42;;;;;;;0.57;0.57;;;2.50;99.90;;;;;;5004076;28;20049;-78
2024/02/24 09:04:10;;;;;;;0.63;0.63;;;2.60;99.90;;;;;;5026786;28;20047;-79
2024/02/24 09:06:36;;;;;;;0.55;0.50;;;2.70;99.90;;;;;;4994110;28;20057;-79
2024/02/24 09:09:07;;;;;;;0.55;0.55;;;2.90;99.90;;;;;;5030524;28;20041;-79
2024/02/24 09:11:33;;;;;;;0.52;0.52;;;3.00;99.90;;;;;;5025037;28;20097;-79
2024/02/24 09:14:00;;;;;;;0.43;0.40;;;3.20;99.90;;;;;;5020082;28;20118;-79
2024/02/24 09:16:27;;;;;;;0.82;0.50;;;3.30;99.90;;;;;;5026034;28;20049;-79
2024/02/24 09:18:54;;;;;;;0.50;0.50;;;3.40;99.90;;;;;;5015989;28;20499;-79
2024/02/24 09:21:22;;;;;;;0.50;0.50;;;3.50;99.90;;;;;;5028230;28;20058;-79
2024/02/24 09:23:48;;;;;;;0.47;0.47;;;3.70;99.90;;;;;;5026439;28;20072;-79
2024/02/24 09:26:16;;;;;;;0.90;0.73;;;3.80;99.90;;;;;;4996766;28;20046;-79
2024/02/24 09:28:43;;;;;;;1.08;0.60;;;3.90;99.90;;;;;;5028098;28;20065;-79
2024/02/24 09:31:10;;;;;;;0.60;0.57;;;4.10;99.90;;;;;;5019797;28;20045;-78
2024/02/24 09:33:36;;;;;;;0.50;0.50;;;4.20;99.90;;;;;;5038953;28;20041;-78
2024/02/24 09:36:04;;;;;;;0.82;0.80;;;4.40;99.90;;;;;;5021123;28;20049;-78
2024/02/24 09:38:31;;;;;;;1.38;0.70;;;4.50;99.90;;;;;;5040501;28;20065;-79
2024/02/24 09:40:57;;;;;;;0.60;0.60;;;4.70;99.90;;;;;;5024912;28;20056;-79
2024/02/24 09:43:25;;;;;;;0.47;0.47;;;4.80;99.90;;;;;;5026634;28;20069;-78
2024/02/24 09:45:54;;;;;;;0.77;0.73;;;5.00;99.90;;;;;;5018036;28;20073;-78
2024/02/24 09:48:20;;;;;;;0.85;0.50;;;5.20;99.90;;;;;;5023387;28;20050;-79
2024/02/24 09:50:48;;;;;;;0.45;0.45;;;5.40;99.90;;;;;;5009271;28;20052;-78
2024/02/24 09:53:14;;;;;;;0.40;0.40;;;5.60;99.90;;;;;;5022046;28;20053;-78
2024/02/24 09:55:43;;;;;;;1.00;0.60;;;5.70;99.90;;;;;;5032189;28;20064;-78
2024/02/24 09:58:11;;;;;;;0.20;0.20;;;5.90;99.90;;;;;;5031383;28;20502;-78
2024/02/24 10:00:38;;;;;;;0.65;0.60;;;6.00;99.90;;;;;;5007943;28;20162;-78
2024/02/24 10:03:05;;;;;;;0.43;0.43;;;6.10;99.90;;;;;;5012861;28;20076;-78
2024/02/24 10:05:32;;;;;;;0.40;0.40;;;6.20;99.90;;;;;;4993054;28;20053;-79
2024/02/24 10:07:59;;;;;;;1.00;0.47;;;6.30;99.90;;;;;;5008673;28;20139;-78
2024/02/24 10:10:28;;;;;;;0.30;0.30;;;6.30;99.90;;;;;;5000456;28;20084;-77
2024/02/24 10:12:58;;;;;;;0.30;0.30;;;6.40;99.90;;;;;;5033803;28;20280;-78
2024/02/24 10:15:29;;;;;;;;;;;6.50;99.90;;;;;;5005791;28;20049;-79
2024/02/24 10:17:58;;;;;;;0.40;0.40;;;6.50;99.90;;;;;;5036694;28;19925;-79
2024/02/24 10:20:26;;;;;;;1.05;0.50;;;6.60;99.90;;;;;;5003855;28;20051;-78
2024/02/24 10:22:53;;;;;;;0.52;0.50;;;6.50;99.90;;;;;;5001232;28;20057;-79
2024/02/24 10:25:20;;;;;;;1.92;0.40;;;6.60;99.90;;;;;;5013096;28;20049;-79
2024/02/24 10:27:47;;;;;;;0.40;0.40;;;6.60;99.90;;;;;;5022057;28;20061;-79
2024/02/24 10:30:14;;;;;;;0.35;0.35;;;6.60;99.90;;;;;;5004851;28;20049;-79
2024/02/24 10:32:42;;;;;;;0.47;0.47;;;6.60;99.90;;;;;;5033145;28;20053;-79
2024/02/24 10:35:09;;;;;;;0.40;0.40;;;6.60;99.90;;;;;;5020856;28;20082;-79
2024/02/24 10:37:37;;;;;;;0.65;0.40;;;6.60;99.90;;;;;;5006599;28;20118;-80
2024/02/24 10:40:08;;;;;;;0.55;0.50;;;6.70;99.90;;;;;;4996008;28;20053;-81
2024/02/24 10:42:35;;;;;;;0.50;0.50;;;6.70;99.90;;;;;;4997833;28;20510;-83
2024/02/24 10:45:06;;;;;;;0.40;0.40;;;6.80;99.90;;;;;;5034236;28;20049;-81
2024/02/24 10:47:36;;;;;;;0.38;0.38;;;6.90;99.90;;;;;;5004177;28;20081;-79
2024/02/24 10:50:05;;;;;;;0.40;0.40;;;7.00;99.90;;;;;;5018863;28;20159;-78
2024/02/24 10:52:32;;;;;;;0.30;0.30;;;7.10;99.90;;;;;;5032068;28;20290;-78
2024/02/24 10:55:00;;;;;;;0.50;0.40;;;7.20;99.90;;;;;;5019309;28;20048;-78
2024/02/24 10:57:27;;;;;;;0.70;0.40;;;7.30;99.90;;;;;;5014323;28;20044;-78
2024/02/24 10:59:54;;;;;;;0.40;0.40;;;7.30;99.90;;;;;;5019152;28;20380;-78
2024/02/24 11:02:21;;;;;;;0.52;0.50;;;7.40;99.90;;;;;;5000407;28;20049;-77
2024/02/24 11:04:48;;;;;;;0.60;0.60;;;7.50;99.90;;;;;;5008122;28;20077;-77
2024/02/24 11:07:20;;;;;;;0.30;0.30;;;7.60;99.90;;;;;;5029350;28;20311;-77
2024/02/24 11:09:48;;;;;;;0.38;0.38;;;7.80;99.90;;;;;;5018932;28;20045;-78
2024/02/24 11:12:19;;;;;;;0.98;0.40;;;7.90;99.90;;;;;;4998063;28;20416;-77
2024/02/24 11:14:47;;;;;;;0.50;0.50;;;8.00;99.90;;;;;;5001937;28;20666;-77
2024/02/24 11:17:50;;;;;;;1.48;0.70;;;8.10;99.90;;;;;;5017068;28;20052;-79
2024/02/24 11:20:37;;;;;;;0.50;0.50;;;8.30;99.90;;;;;;5039075;28;20453;-78
2024/02/24 11:23:26;;;;;;;0.60;0.60;;;8.40;99.90;;;;;;5041030;28;20048;-77
2024/02/24 11:26:29;;;;;;;0.60;0.60;;;8.50;99.90;;;;;;5012250;28;20068;-77
2024/02/24 11:29:08;;;;;;;0.77;0.57;;;8.70;99.90;;;;;;5022226;28;20117;-79
2024/02/24 11:31:36;;;;;;;0.40;0.40;;;8.90;99.90;;;;;;5007573;28;20049;-77
2024/02/24 11:34:07;;;;;;;1.00;0.60;;;9.00;99.90;;;;;;5028914;28;20567;-78
2024/02/24 11:36:38;;;;;;;0.77;0.60;;;9.10;99.90;;;;;;5016455;28;20056;-78
2024/02/24 11:39:11;;;;;;;0.40;0.40;;;9.10;99.90;;;;;;5003465;28;20053;-78
2024/02/24 11:41:40;;;;;;;0.60;0.60;;;9.30;99.90;;;;;;5011430;28;20056;-78
2024/02/24 11:44:07;;;;;;;0.40;0.40;;;9.30;99.90;;;;;;5039283;28;20591;-78
2024/02/24 11:46:35;;;;;;;0.82;0.60;;;9.40;99.90;;;;;;5006894;28;20304;-78
2024/02/24 11:49:03;;;;;;;0.57;0.47;;;9.40;99.90;;;;;;5019684;28;20159;-77
2024/02/24 11:51:30;;;;;;;0.57;0.50;;;9.40;99.90;;;;;;5019554;28;20057;-78
2024/02/24 11:53:57;;;;;;;1.13;0.40;;;9.50;99.90;;;;;;5013533;28;20103;-77
2024/02/24 11:56:25;;;;;;;0.68;0.47;;;9.40;99.90;;;;;;5004203;28;20054;-78
2024/02/24 11:58:55;;;;;;;0.70;0.60;;;9.30;99.90;;;;;;4992402;28;20045;-77
2024/02/24 12:01:22;;;;;;;0.50;0.50;;;9.20;99.90;;;;;;5016627;28;20068;-77
2024/02/24 12:03:59;;;;;;;0.40;0.40;;;9.10;99.90;;;;;;5021988;28;20133;-77
2024/02/24 12:06:26;;;;;;;0.88;0.50;;;9.20;99.90;;;;;;5039163;28;20163;-77
2024/02/24 12:08:54;;;;;;;0.38;0.20;;;9.10;99.90;;;;;;5035061;28;20049;-77
2024/02/24 12:11:21;;;;;;;0.68;0.50;;;9.10;99.90;;;;;;5022306;28;20049;-78
2024/02/24 12:13:49;;;;;;;0.43;0.43;;;8.90;99.90;;;;;;5012926;28;20056;-78
2024/02/24 12:16:17;;;;;;;0.70;0.47;;;8.90;99.90;;;;;;5022223;28;20064;-78
2024/02/24 12:18:44;;;;;;;0.47;0.40;;;8.90;99.90;;;;;;5011559;28;20641;-79
2024/02/24 12:21:12;;;;;;;0.40;0.40;;;8.80;99.90;;;;;;5008761;28;20156;-78
2024/02/24 12:23:41;;;;;;;0.47;0.47;;;8.80;99.90;;;;;;5005529;28;20056;-78
2024/02/24 12:26:15;;;;;;;0.95;0.45;;;8.80;99.90;;;;;;5009573;28;20921;-78
2024/02/24 12:28:45;;;;;;;0.20;0.20;;;8.90;99.90;;;;;;5006554;28;20068;-78
2024/02/24 12:31:13;;;;;;;0.30;0.30;;;8.90;99.90;;;;;;5038801;28;20057;-78
2024/02/24 12:33:42;;;;;;;0.55;0.55;;;9.00;99.90;;;;;;4995523;28;20053;-78
2024/02/24 12:36:10;;;;;;;0.52;0.50;;;9.10;99.90;;;;;;5018336;28;20045;-78
2024/02/24 12:38:37;;;;;;;0.68;0.60;;;9.40;99.90;;;;;;5029644;28;20057;-78
2024/02/24 12:41:10;;;;;;;0.90;0.70;;;9.70;99.90;;;;;;4992450;28;20049;-78
2024/02/24 12:43:38;;;;;;;0.95;0.50;;;10.00;99.90;;;;;;5017405;28;20049;-79
2024/02/24 12:46:06;;;;;;;0.65;0.60;;;10.10;99.90;;;;;;5038342;28;20510;-78
2024/02/24 12:48:33;;;;;;;0.80;0.52;;;10.10;99.90;;;;;;5007022;28;20079;-77
2024/02/24 12:51:00;;;;;;;0.50;0.50;;;10.20;99.90;;;;;;5021972;28;20057;-78
2024/02/24 12:53:27;;;;;;;0.50;0.50;;;10.30;99.90;;;;;;5013407;28;20049;-79
2024/02/24 12:55:55;;;;;;;0.60;0.60;;;10.40;99.90;;;;;;5002434;28;20059;-78
2024/02/24 12:58:23;;;;;;;0.63;0.50;;;10.70;99.90;;;;;;5038684;28;20052;-78
2024/02/24 13:00:52;;;;;;;0.50;0.50;;;10.80;99.90;;;;;;5033026;28;20071;-78